< Typhoon 198713 1987 Season Typhoon 198715 >
Typhoon 198714 (GERALD)
General InformationTrack Information on Google MapsDetailed Wind InformationList of All Images || Disaster Info.ResourceGoogle EarthGE AnimationAtom FeedGeoJSON
Detalied Best Track (Time Zone = UTC)
Year Month Day Hour Lat. Long. Pressure (hPa) Wind (kt) Class Image Chart
1987 9 3 00 17.0 129.5 1006 0 2 Image Chart
1987 9 3 06 17.0 128.7 1004 0 2 Image Chart
1987 9 3 12 16.8 128.0 1004 0 2 Image Chart
1987 9 3 18 16.5 127.4 1002 0 2 Image Chart
1987 9 4 00 16.0 127.0 1002 0 2 Image Chart
1987 9 4 06 15.6 127.4 1002 0 2 Image Chart
1987 9 4 12 16.0 127.5 1002 0 2 Image Chart
1987 9 4 18 16.5 127.0 1000 0 2 Image Chart
1987 9 5 00 16.5 126.5 1000 0 2 Image Chart
1987 9 5 06 16.7 126.9 996 35 3 Image Chart
1987 9 5 12 17.0 126.9 994 45 3 Image Chart
1987 9 5 18 17.3 126.6 990 50 4 Image Chart
1987 9 6 00 17.5 126.4 985 50 4 Image Chart
1987 9 6 06 17.7 126.3 985 50 4 Image Chart
1987 9 6 12 17.8 126.2 985 60 4 Image Chart
1987 9 6 18 18.0 126.1 980 60 4 Image Chart
1987 9 7 00 18.2 126.0 980 60 4 Image Chart
1987 9 7 06 18.4 125.8 975 60 4 Image Chart
1987 9 7 12 18.7 125.6 975 65 5 Image Chart
1987 9 7 18 19.5 125.2 970 65 5 Image Chart
1987 9 8 00 19.8 124.8 965 70 5 Image Chart
1987 9 8 06 20.1 124.0 960 75 5 Image Chart
1987 9 8 12 20.3 123.3 955 75 5 Image Chart
1987 9 8 18 20.5 122.5 950 80 5 Image Chart
1987 9 9 00 20.9 121.8 950 80 5 Image Chart
1987 9 9 06 21.3 121.1 955 75 5 Image Chart
1987 9 9 12 21.9 120.5 960 75 5 Image Chart
1987 9 9 18 22.6 119.9 970 65 5 Image Chart
1987 9 10 00 23.3 119.4 980 60 4 Image Chart
1987 9 10 06 24.1 119.0 990 50 4 Image Chart
1987 9 10 12 24.9 118.7 994 40 3 Image Chart
1987 9 10 18 25.6 118.4 998 0 6 Image Chart
Japan Meteorological Agency Best Track Data | Correction Date : 1992-10-21
< Typhoon 198713 1987 Season Typhoon 198715 >

Help